createdAt,value
2019-03-24T00:01:07.808Z,16.37
2019-03-24T00:03:35.537Z,18.10
2019-03-24T00:06:01.818Z,15.90
2019-03-24T00:08:28.101Z,18.77
2019-03-24T00:10:54.462Z,18.10
2019-03-24T00:13:20.820Z,17.83
2019-03-24T00:15:47.187Z,16.63
2019-03-24T00:18:13.469Z,17.83
2019-03-24T00:20:39.761Z,17.63
2019-03-24T00:23:06.040Z,17.13
2019-03-24T00:25:32.524Z,17.90
2019-03-24T00:27:58.905Z,16.70
2019-03-24T00:30:25.313Z,15.87
2019-03-24T00:32:51.626Z,16.90
2019-03-24T00:35:18.943Z,15.70
2019-03-24T00:37:45.202Z,16.97
2019-03-24T00:40:12.407Z,17.23
2019-03-24T00:42:38.663Z,15.83
2019-03-24T00:45:10.762Z,15.30
2019-03-24T00:47:37.160Z,16.90
2019-03-24T00:50:06.723Z,16.30
2019-03-24T00:52:33.116Z,15.67
2019-03-24T00:55:00.009Z,16.43
2019-03-24T00:57:26.266Z,15.63
2019-03-24T00:59:52.608Z,17.43
2019-03-24T01:02:18.997Z,19.27
2019-03-24T01:04:45.302Z,16.77
2019-03-24T01:07:11.752Z,17.50
2019-03-24T01:09:38.019Z,17.70
2019-03-24T01:12:04.405Z,16.60
2019-03-24T01:14:30.654Z,16.77
2019-03-24T01:16:57.094Z,17.77
2019-03-24T01:19:23.368Z,17.57
2019-03-24T01:21:49.644Z,17.43
2019-03-24T01:24:16.104Z,15.77
2019-03-24T01:26:42.712Z,16.47
2019-03-24T01:29:08.996Z,18.27
2019-03-24T01:31:35.262Z,16.63
2019-03-24T01:34:01.529Z,17.53
2019-03-24T01:36:27.832Z,16.97
2019-03-24T01:38:54.122Z,15.37
2019-03-24T01:41:20.793Z,19.00
2019-03-24T01:43:47.288Z,17.23
2019-03-24T01:46:13.746Z,18.13
2019-03-24T01:48:40.204Z,18.27
2019-03-24T01:51:06.466Z,18.50
2019-03-24T01:53:32.734Z,17.70
2019-03-24T01:55:59.024Z,18.10
2019-03-24T01:58:25.343Z,16.63
2019-03-24T02:00:51.693Z,17.53
2019-03-24T02:03:17.951Z,17.17
2019-03-24T02:05:44.216Z,17.43
2019-03-24T02:08:10.879Z,17.73
2019-03-24T02:10:37.198Z,17.40
2019-03-24T02:13:03.686Z,16.57
2019-03-24T02:15:30.013Z,19.23
2019-03-24T02:17:56.303Z,18.17
2019-03-24T02:20:22.589Z,16.60
2019-03-24T02:22:48.883Z,17.43
2019-03-24T02:25:15.176Z,19.00
2019-03-24T02:27:41.576Z,18.07
2019-03-24T02:30:08.761Z,16.50
2019-03-24T02:32:35.191Z,17.50
2019-03-24T02:35:01.985Z,15.87
2019-03-24T02:37:28.250Z,16.80
2019-03-24T02:39:54.552Z,18.97
2019-03-24T02:42:20.828Z,17.10
2019-03-24T02:44:47.121Z,17.00
2019-03-24T02:47:13.420Z,17.93
2019-03-24T02:49:39.759Z,17.33
2019-03-24T02:52:06.053Z,18.07
2019-03-24T02:54:32.350Z,17.87
2019-03-24T02:56:58.681Z,18.60
2019-03-24T02:59:24.967Z,17.00
2019-03-24T03:01:51.324Z,17.30
2019-03-24T03:04:17.743Z,16.77
2019-03-24T03:06:44.074Z,17.43
2019-03-24T03:09:10.333Z,17.30
2019-03-24T03:11:36.614Z,16.90
2019-03-24T03:14:03.295Z,17.00
2019-03-24T03:16:38.280Z,16.63
2019-03-24T03:18:57.944Z,16.83
2019-03-24T03:21:24.218Z,19.07
2019-03-24T03:23:50.633Z,17.73
2019-03-24T03:26:17.070Z,15.00
2019-03-24T03:28:44.509Z,17.47
2019-03-24T03:31:10.780Z,15.73
2019-03-24T03:33:37.085Z,17.33
2019-03-24T03:36:03.713Z,17.83
2019-03-24T03:38:30.174Z,17.30
2019-03-24T03:40:56.582Z,19.90
2019-03-24T03:43:23.111Z,18.40
2019-03-24T03:45:49.378Z,17.70
2019-03-24T03:48:15.831Z,16.00
2019-03-24T03:50:42.243Z,15.00
2019-03-24T03:53:08.536Z,16.83
2019-03-24T03:55:34.807Z,17.43
2019-03-24T03:58:01.313Z,18.03
2019-03-24T04:00:35.542Z,17.40
2019-03-24T04:03:03.329Z,18.83
2019-03-24T04:05:29.569Z,18.47
2019-03-24T04:07:56.260Z,16.60
2019-03-24T04:10:22.523Z,19.20
2019-03-24T04:12:48.948Z,15.33
2019-03-24T04:15:15.365Z,17.37
2019-03-24T04:17:41.769Z,18.73
2019-03-24T04:20:08.354Z,18.37
2019-03-24T04:22:36.559Z,18.27
2019-03-24T04:25:05.265Z,17.80
2019-03-24T04:27:31.535Z,17.40
2019-03-24T04:29:57.804Z,17.50
2019-03-24T04:32:24.267Z,16.83
2019-03-24T04:34:50.552Z,18.67
2019-03-24T04:37:16.923Z,18.77
2019-03-24T04:39:43.200Z,16.40
2019-03-24T04:42:09.462Z,16.30
2019-03-24T04:44:35.717Z,15.47
2019-03-24T04:47:02.087Z,16.13
2019-03-24T04:49:28.405Z,17.63
2019-03-24T04:51:54.887Z,17.70
2019-03-24T04:54:21.166Z,17.33
2019-03-24T04:56:47.547Z,16.90
2019-03-24T04:59:33.694Z,16.20
2019-03-24T05:02:00.288Z,19.73
2019-03-24T05:04:26.550Z,17.07
2019-03-24T05:06:53.190Z,16.37
2019-03-24T05:09:20.259Z,18.50
2019-03-24T05:11:46.534Z,16.33
2019-03-24T05:14:12.791Z,18.03
2019-03-24T05:16:39.079Z,17.00
2019-03-24T05:19:05.430Z,19.30
2019-03-24T05:21:31.724Z,17.50
2019-03-24T05:23:58.148Z,15.87
2019-03-24T05:26:24.456Z,17.23
2019-03-24T05:28:50.733Z,16.97
2019-03-24T05:31:17.151Z,17.07
2019-03-24T05:33:43.423Z,18.00
2019-03-24T05:36:09.803Z,15.10
2019-03-24T05:38:36.071Z,15.17
2019-03-24T05:41:02.729Z,14.30
2019-03-24T05:43:29.009Z,14.90
2019-03-24T05:45:55.282Z,13.90
2019-03-24T05:48:21.670Z,16.00
2019-03-24T05:50:47.952Z,16.30
2019-03-24T05:53:14.239Z,15.50
2019-03-24T05:55:40.494Z,15.50
2019-03-24T05:58:06.915Z,17.27
2019-03-24T06:00:33.276Z,15.00
2019-03-24T06:02:59.551Z,15.67
2019-03-24T06:05:31.386Z,14.93
2019-03-24T06:07:57.754Z,16.07
2019-03-24T06:10:24.016Z,14.67
2019-03-24T06:12:50.387Z,15.10
2019-03-24T06:15:16.782Z,14.67
2019-03-24T06:17:47.706Z,15.37
2019-03-24T06:20:11.554Z,15.00
2019-03-24T06:22:37.820Z,15.43
2019-03-24T06:25:05.546Z,14.87
2019-03-24T06:27:31.875Z,13.70
2019-03-24T06:29:58.136Z,14.43
2019-03-24T06:32:24.469Z,15.63
2019-03-24T06:34:50.870Z,16.10
2019-03-24T06:37:17.259Z,13.60
2019-03-24T06:39:43.529Z,14.80
2019-03-24T06:42:09.786Z,17.07
2019-03-24T06:44:36.162Z,14.60
2019-03-24T06:47:02.749Z,13.60
2019-03-24T06:49:29.047Z,12.93
2019-03-24T06:51:55.446Z,13.37
2019-03-24T06:54:21.711Z,13.77
2019-03-24T06:56:47.986Z,14.83
2019-03-24T06:59:14.258Z,13.80
2019-03-24T07:01:40.531Z,15.47
2019-03-24T07:04:06.887Z,15.53
2019-03-24T07:06:34.789Z,13.70
2019-03-24T07:09:01.163Z,14.23
2019-03-24T07:11:27.450Z,14.23
2019-03-24T07:13:53.702Z,16.07
2019-03-24T07:16:23.396Z,15.17
2019-03-24T07:18:49.844Z,14.70
2019-03-24T07:21:16.217Z,14.60
2019-03-24T07:23:42.646Z,15.03
2019-03-24T07:26:09.106Z,14.53
2019-03-24T07:28:35.404Z,18.80
2019-03-24T07:31:01.938Z,17.20
2019-03-24T07:33:28.600Z,17.40
2019-03-24T07:35:55.276Z,18.40
2019-03-24T07:38:21.923Z,18.30
2019-03-24T07:40:48.723Z,17.20
2019-03-24T07:43:15.261Z,18.97
2019-03-24T07:45:41.634Z,20.40
2019-03-24T07:48:18.443Z,18.83
2019-03-24T07:50:36.728Z,19.20
2019-03-24T07:53:03.005Z,15.93
2019-03-24T07:55:29.390Z,17.40
2019-03-24T07:57:55.716Z,18.47
2019-03-24T08:00:35.182Z,21.63
2019-03-24T08:03:01.444Z,20.00
2019-03-24T08:05:29.483Z,19.10
2019-03-24T08:07:55.750Z,21.73
2019-03-24T08:10:22.208Z,21.00
2019-03-24T08:12:48.566Z,19.20
2019-03-24T08:15:14.991Z,18.47
2019-03-24T08:17:41.259Z,22.70
2019-03-24T08:20:08.045Z,23.13
2019-03-24T08:22:34.342Z,21.77
2019-03-24T08:25:00.838Z,20.97
2019-03-24T08:27:27.283Z,21.80
2019-03-24T08:29:53.675Z,21.47
2019-03-24T08:32:20.090Z,21.50
2019-03-24T08:34:48.403Z,22.10
2019-03-24T08:37:14.766Z,21.40
2019-03-24T08:39:41.021Z,21.17
2019-03-24T08:42:07.412Z,21.47
2019-03-24T08:44:33.749Z,21.70
2019-03-24T08:47:00.022Z,20.83
2019-03-24T08:49:26.316Z,23.47
2019-03-24T08:51:52.581Z,23.57
2019-03-24T08:54:18.868Z,24.27
2019-03-24T08:56:45.150Z,23.20
2019-03-24T08:59:11.408Z,24.63
2019-03-24T09:01:37.666Z,22.93
2019-03-24T09:04:04.184Z,23.83
2019-03-24T09:06:30.548Z,22.03
2019-03-24T09:08:56.823Z,25.97
2019-03-24T09:11:30.797Z,24.53
2019-03-24T09:13:51.327Z,25.33
2019-03-24T09:16:17.685Z,24.70
2019-03-24T09:18:52.668Z,24.17
2019-03-24T09:21:12.124Z,25.43
2019-03-24T09:23:38.493Z,26.47
2019-03-24T09:26:04.965Z,25.90
2019-03-24T09:28:31.217Z,24.50
2019-03-24T09:30:57.479Z,25.50
2019-03-24T09:33:23.735Z,25.30
2019-03-24T09:35:49.981Z,27.00
2019-03-24T09:38:16.392Z,28.53
2019-03-24T09:40:42.801Z,26.40
2019-03-24T09:43:09.178Z,27.23
2019-03-24T09:45:35.609Z,27.40
2019-03-24T09:48:02.261Z,27.10
2019-03-24T09:50:28.810Z,25.77
2019-03-24T09:52:55.777Z,27.27
2019-03-24T09:55:22.069Z,26.80
2019-03-24T09:57:48.941Z,27.37
2019-03-24T10:00:15.548Z,30.30
2019-03-24T10:02:41.815Z,27.87
2019-03-24T10:05:09.723Z,27.77
2019-03-24T10:07:36.527Z,29.50
2019-03-24T10:10:07.712Z,29.63
2019-03-24T10:12:33.973Z,31.63
2019-03-24T10:15:00.389Z,29.73
2019-03-24T10:17:26.650Z,30.17
2019-03-24T10:19:53.127Z,28.90
2019-03-24T10:22:19.375Z,29.60
2019-03-24T10:24:45.744Z,28.53
2019-03-24T10:27:12.221Z,28.37
2019-03-24T10:29:38.661Z,28.20
2019-03-24T10:32:04.935Z,29.03
2019-03-24T10:34:31.314Z,32.50
2019-03-24T10:36:57.595Z,28.33
2019-03-24T10:39:23.847Z,30.33
2019-03-24T10:41:50.231Z,29.63
2019-03-24T10:44:18.399Z,31.13
2019-03-24T10:46:44.661Z,29.57
2019-03-24T10:49:10.970Z,29.73
2019-03-24T10:51:37.260Z,29.30
2019-03-24T10:54:03.706Z,31.00
2019-03-24T10:56:29.973Z,36.43
2019-03-24T10:58:56.240Z,35.67
2019-03-24T11:01:22.493Z,33.27
2019-03-24T11:03:48.768Z,34.23
2019-03-24T11:06:15.143Z,33.97
2019-03-24T11:08:41.597Z,37.00
2019-03-24T11:11:07.896Z,33.77
2019-03-24T11:13:34.142Z,32.23
2019-03-24T11:16:00.547Z,29.00
2019-03-24T11:18:26.902Z,33.47
2019-03-24T11:20:55.077Z,33.57
2019-03-24T11:23:21.505Z,33.50
2019-03-24T11:25:47.841Z,32.80
2019-03-24T11:28:14.161Z,29.93
2019-03-24T11:30:40.472Z,31.83
2019-03-24T11:33:06.865Z,30.20
2019-03-24T11:35:33.374Z,29.63
2019-03-24T11:37:59.711Z,30.20
2019-03-24T11:40:26.141Z,32.87
2019-03-24T11:42:52.512Z,32.10
2019-03-24T11:45:18.992Z,32.30
2019-03-24T11:47:45.266Z,33.67
2019-03-24T11:50:11.843Z,34.03
2019-03-24T11:52:38.390Z,32.70
2019-03-24T11:55:10.253Z,30.50
2019-03-24T11:57:36.822Z,34.10
2019-03-24T12:00:15.420Z,36.40
2019-03-24T12:02:41.821Z,34.63
2019-03-24T12:05:08.467Z,32.63
2019-03-24T12:07:34.717Z,30.67
2019-03-24T12:10:03.935Z,34.07
2019-03-24T12:12:30.312Z,29.60
2019-03-24T12:14:56.622Z,34.80
2019-03-24T12:17:23.020Z,32.00
2019-03-24T12:19:56.833Z,33.43
2019-03-24T12:22:17.579Z,31.87
2019-03-24T12:24:43.947Z,34.07
2019-03-24T12:27:10.536Z,29.53
2019-03-24T12:29:36.971Z,28.97
2019-03-24T12:32:03.513Z,32.07
2019-03-24T12:34:31.921Z,33.07
2019-03-24T12:36:58.168Z,32.80
2019-03-24T12:39:24.454Z,31.83
2019-03-24T12:41:50.917Z,32.57
2019-03-24T12:44:17.336Z,29.90
2019-03-24T12:46:43.588Z,28.30
2019-03-24T12:49:09.890Z,30.80
2019-03-24T12:51:36.150Z,33.10
2019-03-24T12:54:02.734Z,33.17
2019-03-24T12:56:29.166Z,31.07
2019-03-24T12:58:55.414Z,33.13
2019-03-24T13:01:21.684Z,29.30
2019-03-24T13:03:48.032Z,32.37
2019-03-24T13:06:14.418Z,30.47
2019-03-24T13:08:41.049Z,26.90
2019-03-24T13:11:07.559Z,27.73
2019-03-24T13:13:33.829Z,29.73
2019-03-24T13:16:00.375Z,29.97
2019-03-24T13:18:26.768Z,34.27
2019-03-24T13:20:53.071Z,33.60
2019-03-24T13:23:19.514Z,31.80
2019-03-24T13:25:45.774Z,34.30
2019-03-24T13:28:12.051Z,33.40
2019-03-24T13:30:38.317Z,30.80
2019-03-24T13:33:04.724Z,28.40
2019-03-24T13:35:31.085Z,30.20
2019-03-24T13:37:57.492Z,28.67
2019-03-24T13:40:23.822Z,30.93
2019-03-24T13:42:50.089Z,30.03
2019-03-24T13:45:16.462Z,32.73
2019-03-24T13:47:42.841Z,27.50
2019-03-24T13:50:09.922Z,31.07
2019-03-24T13:52:36.482Z,28.60
2019-03-24T13:55:05.345Z,28.90
2019-03-24T13:57:31.897Z,28.03
2019-03-24T13:59:58.301Z,29.50
2019-03-24T14:02:24.755Z,28.77
2019-03-24T14:04:51.853Z,32.33
2019-03-24T14:07:18.398Z,31.17
2019-03-24T14:09:44.656Z,30.10
2019-03-24T14:12:11.136Z,28.67
2019-03-24T14:14:37.559Z,29.67
2019-03-24T14:17:03.912Z,27.70
2019-03-24T14:19:30.173Z,26.93
2019-03-24T14:21:56.446Z,29.97
2019-03-24T14:24:22.686Z,28.37
2019-03-24T14:26:49.306Z,27.00
2019-03-24T14:29:15.554Z,25.07
2019-03-24T14:31:42.363Z,24.57
2019-03-24T14:34:08.737Z,27.13
2019-03-24T14:36:35.036Z,26.67
2019-03-24T14:39:01.305Z,25.83
2019-03-24T14:41:27.561Z,28.33
2019-03-24T14:43:53.839Z,31.97
2019-03-24T14:46:20.371Z,26.47
2019-03-24T14:48:46.869Z,26.17
2019-03-24T14:51:13.142Z,24.73
2019-03-24T14:53:39.414Z,26.13
2019-03-24T14:56:05.826Z,26.53
2019-03-24T14:58:32.293Z,28.67
2019-03-24T15:00:58.657Z,22.80
2019-03-24T15:03:25.050Z,24.53
2019-03-24T15:05:51.500Z,24.60
2019-03-24T15:08:17.784Z,28.13
2019-03-24T15:10:44.255Z,26.50
2019-03-24T15:13:10.726Z,29.30
2019-03-24T15:15:37.130Z,25.93
2019-03-24T15:18:03.781Z,28.23
2019-03-24T15:20:30.147Z,29.00
2019-03-24T15:22:56.543Z,26.23
2019-03-24T15:25:22.820Z,25.47
2019-03-24T15:27:49.086Z,27.10
2019-03-24T15:30:15.855Z,24.17
2019-03-24T15:32:43.467Z,24.30
2019-03-24T15:35:10.050Z,27.77
2019-03-24T15:37:36.560Z,25.03
2019-03-24T15:40:05.702Z,26.83
2019-03-24T15:42:31.948Z,26.80
2019-03-24T15:44:58.308Z,25.70
2019-03-24T15:47:24.717Z,28.20
2019-03-24T15:49:51.183Z,25.40
2019-03-24T15:52:17.547Z,28.60
2019-03-24T15:54:45.880Z,23.20
2019-03-24T15:57:12.511Z,27.17
2019-03-24T15:59:40.586Z,29.53
2019-03-24T16:02:06.835Z,26.40
2019-03-24T16:04:33.100Z,25.13
2019-03-24T16:06:59.378Z,24.13
2019-03-24T16:09:25.871Z,23.57
2019-03-24T16:11:52.144Z,24.23
2019-03-24T16:14:18.469Z,25.10
2019-03-24T16:16:44.929Z,25.37
2019-03-24T16:19:31.098Z,24.30
2019-03-24T16:21:57.348Z,22.40
2019-03-24T16:24:23.598Z,25.10
2019-03-24T16:26:49.874Z,25.13
2019-03-24T16:29:16.129Z,24.53
2019-03-24T16:31:42.424Z,25.40
2019-03-24T16:34:08.755Z,25.40
2019-03-24T16:36:37.061Z,25.87
2019-03-24T16:39:07.146Z,25.60
2019-03-24T16:41:33.429Z,23.67
2019-03-24T16:43:59.704Z,24.17
2019-03-24T16:46:26.231Z,24.40
2019-03-24T16:48:52.541Z,23.23
2019-03-24T16:51:18.822Z,20.43
2019-03-24T16:53:45.081Z,24.63
2019-03-24T16:56:11.379Z,23.83
2019-03-24T16:58:37.774Z,23.23
2019-03-24T17:01:04.248Z,22.30
2019-03-24T17:03:30.536Z,22.07
2019-03-24T17:05:57.101Z,25.77
2019-03-24T17:08:23.382Z,28.23
2019-03-24T17:10:49.750Z,25.13
2019-03-24T17:13:16.112Z,28.97
2019-03-24T17:15:42.578Z,25.80
2019-03-24T17:18:09.035Z,30.73
2019-03-24T17:20:35.399Z,27.47
2019-03-24T17:23:01.922Z,26.93
2019-03-24T17:25:28.197Z,29.77
2019-03-24T17:27:54.472Z,30.93
2019-03-24T17:30:20.846Z,27.07
2019-03-24T17:32:47.202Z,29.50
2019-03-24T17:35:13.628Z,28.13
2019-03-24T17:37:40.039Z,23.67
2019-03-24T17:40:09.230Z,26.00
2019-03-24T17:42:37.543Z,26.70
2019-03-24T17:45:09.832Z,26.17
2019-03-24T17:47:36.320Z,27.40
2019-03-24T17:50:05.206Z,30.20
2019-03-24T17:52:31.456Z,27.30
2019-03-24T17:54:57.728Z,26.37
2019-03-24T17:57:24.149Z,30.40
2019-03-24T17:59:50.523Z,30.40
2019-03-24T18:02:16.879Z,33.17
2019-03-24T18:04:43.253Z,33.47
2019-03-24T18:07:09.543Z,35.87
2019-03-24T18:09:35.832Z,36.27
2019-03-24T18:12:02.117Z,35.00
2019-03-24T18:14:28.510Z,33.93
2019-03-24T18:16:54.812Z,40.67
2019-03-24T18:19:21.259Z,37.20
2019-03-24T18:21:47.994Z,37.90
2019-03-24T18:24:14.359Z,34.80
2019-03-24T18:26:40.848Z,35.00
2019-03-24T18:29:07.411Z,39.23
2019-03-24T18:31:33.729Z,40.30
2019-03-24T18:34:00.009Z,37.60
2019-03-24T18:36:26.930Z,40.93
2019-03-24T18:38:53.708Z,37.63
2019-03-24T18:41:20.681Z,41.03
2019-03-24T18:43:47.597Z,37.53
2019-03-24T18:46:14.510Z,36.70
2019-03-24T18:48:41.312Z,37.17
2019-03-24T18:51:08.023Z,39.10
2019-03-24T18:53:35.085Z,38.70
2019-03-24T18:56:02.237Z,41.67
2019-03-24T18:58:31.947Z,39.97
2019-03-24T19:00:59.377Z,38.47
2019-03-24T19:03:27.211Z,41.20
2019-03-24T19:05:55.006Z,43.80
2019-03-24T19:08:22.615Z,40.07
2019-03-24T19:10:50.206Z,40.80
2019-03-24T19:13:17.775Z,37.23
2019-03-24T19:15:45.732Z,40.00
2019-03-24T19:18:13.597Z,34.10
2019-03-24T19:20:40.744Z,35.83
2019-03-24T19:23:08.651Z,36.80
2019-03-24T19:25:36.581Z,33.97
2019-03-24T19:28:05.865Z,35.40
2019-03-24T19:30:37.175Z,34.50
2019-03-24T19:33:05.594Z,36.43
2019-03-24T19:35:33.747Z,39.10
2019-03-24T19:38:02.065Z,33.67
2019-03-24T19:40:33.750Z,33.23
2019-03-24T19:43:02.840Z,36.70
2019-03-24T19:45:30.759Z,34.20
2019-03-24T19:48:00.959Z,32.77
2019-03-24T19:50:28.852Z,37.27
2019-03-24T19:52:58.447Z,35.20
2019-03-24T19:55:26.580Z,34.70
2019-03-24T19:57:54.765Z,33.30
2019-03-24T20:00:22.754Z,36.17
2019-03-24T20:02:50.652Z,36.73
2019-03-24T20:05:18.546Z,36.60
2019-03-24T20:07:48.099Z,38.47
2019-03-24T20:10:17.993Z,35.07
2019-03-24T20:12:45.943Z,34.03
2019-03-24T20:15:14.731Z,36.43
2019-03-24T20:17:42.614Z,37.60
2019-03-24T20:20:11.634Z,41.80
2019-03-24T20:22:39.667Z,38.83
2019-03-24T20:25:07.635Z,39.27
2019-03-24T20:27:35.644Z,35.10
2019-03-24T20:30:08.084Z,38.47
2019-03-24T20:32:36.370Z,40.07
2019-03-24T20:35:07.061Z,38.73
2019-03-24T20:37:35.461Z,35.30
2019-03-24T20:40:06.819Z,38.90
2019-03-24T20:42:34.864Z,41.87
2019-03-24T20:45:04.141Z,38.93
2019-03-24T20:47:32.140Z,40.30
2019-03-24T20:50:03.806Z,40.00
2019-03-24T20:52:31.790Z,41.50
2019-03-24T20:54:59.775Z,42.43
2019-03-24T20:57:27.638Z,41.47
2019-03-24T20:59:55.584Z,43.60
2019-03-24T21:02:23.565Z,40.00
2019-03-24T21:04:51.464Z,44.07
2019-03-24T21:07:18.910Z,42.80
2019-03-24T21:09:46.697Z,42.80
2019-03-24T21:12:13.810Z,41.50
2019-03-24T21:14:40.229Z,41.13
2019-03-24T21:17:07.233Z,39.27
2019-03-24T21:19:34.243Z,39.90
2019-03-24T21:22:01.586Z,37.30
2019-03-24T21:24:27.878Z,39.77
2019-03-24T21:26:54.159Z,43.20
2019-03-24T21:29:22.548Z,41.90
2019-03-24T21:31:48.912Z,39.93
2019-03-24T21:34:15.398Z,43.83
2019-03-24T21:36:41.644Z,38.90
2019-03-24T21:39:07.905Z,36.27
2019-03-24T21:41:34.322Z,41.53
2019-03-24T21:44:00.772Z,38.67
2019-03-24T21:46:27.107Z,41.33
2019-03-24T21:48:53.393Z,40.27
2019-03-24T21:51:19.684Z,37.37
2019-03-24T21:53:45.965Z,40.30
2019-03-24T21:56:14.423Z,39.73
2019-03-24T21:58:40.802Z,39.97
2019-03-24T22:01:07.191Z,42.67
2019-03-24T22:03:33.548Z,42.97
2019-03-24T22:06:00.044Z,39.40
2019-03-24T22:08:26.298Z,39.00
2019-03-24T22:10:52.656Z,41.43
2019-03-24T22:13:18.949Z,41.20
2019-03-24T22:15:45.295Z,40.53
2019-03-24T22:18:11.531Z,41.17
2019-03-24T22:20:48.571Z,40.10
2019-03-24T22:23:06.153Z,46.30
2019-03-24T22:25:32.502Z,42.50
2019-03-24T22:27:58.938Z,40.87
2019-03-24T22:30:25.196Z,40.43
2019-03-24T22:32:51.518Z,38.50
2019-03-24T22:35:17.869Z,38.87
2019-03-24T22:37:44.212Z,41.50
2019-03-24T22:40:11.084Z,38.70
2019-03-24T22:42:37.339Z,39.30
2019-03-24T22:45:04.826Z,39.67
2019-03-24T22:47:31.212Z,39.23
2019-03-24T22:49:57.524Z,40.80
2019-03-24T22:52:23.794Z,40.20
2019-03-24T22:54:50.087Z,45.10
2019-03-24T22:57:16.365Z,38.80
2019-03-24T22:59:42.641Z,41.60
2019-03-24T23:02:09.131Z,43.00
2019-03-24T23:04:35.378Z,46.50
2019-03-24T23:07:01.770Z,41.03
2019-03-24T23:09:28.151Z,43.00
2019-03-24T23:11:54.427Z,39.40
2019-03-24T23:14:22.034Z,41.20
2019-03-24T23:16:48.303Z,41.27
2019-03-24T23:19:14.558Z,38.50
2019-03-24T23:21:40.830Z,38.07
2019-03-24T23:24:15.466Z,42.40
2019-03-24T23:26:35.606Z,39.03
2019-03-24T23:29:02.063Z,46.20
2019-03-24T23:31:28.440Z,44.00
2019-03-24T23:33:54.973Z,40.77
2019-03-24T23:36:21.367Z,39.47
2019-03-24T23:38:47.619Z,42.87
2019-03-24T23:41:14.028Z,42.27
2019-03-24T23:43:40.275Z,42.17
2019-03-24T23:46:06.733Z,44.60
2019-03-24T23:48:33.093Z,41.33
2019-03-24T23:50:59.557Z,42.93
2019-03-24T23:53:26.065Z,40.83
2019-03-24T23:55:52.349Z,38.90
2019-03-24T23:58:18.753Z,44.27
